RYR28ZB LIBD-LIPX
Flight info
| Callsign | RYR28ZB |
|---|---|
| Flight time | 1h 7m |
| Altitude | 32000 |
| Route | PISIP DCT VIE DCT RUPAX DCT ERPOG DCT UTENO DCT BOA/N0335F180 Y72 XUBKA |
| Aircraft | B738/M-SDE2E3FGHIRWXY/LB1 |
Departure
| Time | 2026-04-29 12:28 |
|---|---|
| Airport | Bari Karol Wojtyła International Airport (LIBD) |
Arrival
| Time | 2026-04-29 13:35 |
|---|---|
| Airport | Verona Villafranca Valerio Catullo Airport (LIPX) |
| Time | Latitude | Longitude | Altitude | Speed | Heading |
|---|---|---|---|---|---|
| 2026-04-29 12:09 | 41.13577 | 16.76512 | 135 ft | 0 kts | 159° |
| 2026-04-29 12:20 | 41.13593 | 16.76505 | 135 ft | 4 kts | 165° |
| 2026-04-29 12:20 | 41.13619 | 16.76498 | 135 ft | 4 kts | 180° |
| 2026-04-29 12:20 | 41.13644 | 16.76504 | 135 ft | 4 kts | 214° |
| 2026-04-29 12:21 | 41.13655 | 16.76518 | 135 ft | 0 kts | 247° |
| 2026-04-29 12:22 | 41.13654 | 16.76516 | 135 ft | 1 kts | 247° |
| 2026-04-29 12:22 | 41.13647 | 16.76493 | 135 ft | 5 kts | 247° |
| 2026-04-29 12:23 | 41.13628 | 16.76430 | 135 ft | 10 kts | 250° |
| 2026-04-29 12:23 | 41.13600 | 16.76331 | 135 ft | 12 kts | 250° |
| 2026-04-29 12:23 | 41.13570 | 16.76227 | 135 ft | 12 kts | 249° |
| 2026-04-29 12:23 | 41.13557 | 16.76124 | 135 ft | 12 kts | 287° |
| 2026-04-29 12:24 | 41.13613 | 16.76051 | 135 ft | 11 kts | 318° |
| 2026-04-29 12:24 | 41.13636 | 16.75959 | 135 ft | 11 kts | 253° |
| 2026-04-29 12:24 | 41.13605 | 16.75851 | 136 ft | 14 kts | 250° |
| 2026-04-29 12:24 | 41.13566 | 16.75713 | 137 ft | 18 kts | 248° |
| 2026-04-29 12:25 | 41.13516 | 16.75536 | 140 ft | 21 kts | 249° |
| 2026-04-29 12:25 | 41.13463 | 16.75346 | 141 ft | 22 kts | 249° |
| 2026-04-29 12:25 | 41.13356 | 16.74969 | 147 ft | 21 kts | 249° |
| 2026-04-29 12:26 | 41.13304 | 16.74790 | 147 ft | 21 kts | 250° |
| 2026-04-29 12:26 | 41.13253 | 16.74610 | 151 ft | 22 kts | 249° |
| 2026-04-29 12:26 | 41.13193 | 16.74400 | 153 ft | 26 kts | 249° |
| 2026-04-29 12:26 | 41.13195 | 16.74174 | 147 ft | 27 kts | 302° |
| 2026-04-29 12:27 | 41.13317 | 16.74167 | 146 ft | 23 kts | 70° |
| 2026-04-29 12:27 | 41.13448 | 16.74629 | 143 ft | 87 kts | 69° |
| 2026-04-29 12:27 | 41.13733 | 16.75640 | 140 ft | 144 kts | 69° |
| 2026-04-29 12:27 | 41.14124 | 16.77026 | 462 ft | 164 kts | 70° |
| 2026-04-29 12:28 | 41.14529 | 16.78450 | 1217 ft | 167 kts | 70° |
| 2026-04-29 12:28 | 41.14970 | 16.79970 | 1688 ft | 188 kts | 71° |
| 2026-04-29 12:28 | 41.15055 | 16.80264 | 1724 ft | 195 kts | 70° |
| 2026-04-29 12:28 | 41.15521 | 16.81875 | 2007 ft | 223 kts | 70° |
| 2026-04-29 12:29 | 41.16108 | 16.83906 | 2321 ft | 247 kts | 70° |
| 2026-04-29 12:29 | 41.16740 | 16.86085 | 2961 ft | 258 kts | 70° |
| 2026-04-29 12:29 | 41.17385 | 16.88306 | 3930 ft | 258 kts | 69° |
| 2026-04-29 12:29 | 41.18318 | 16.90352 | 4828 ft | 264 kts | 45° |
| 2026-04-29 12:30 | 41.19836 | 16.91723 | 5697 ft | 268 kts | 23° |
| 2026-04-29 12:30 | 41.21667 | 16.92313 | 6421 ft | 276 kts | 356° |
| 2026-04-29 12:30 | 41.23496 | 16.91612 | 7265 ft | 276 kts | 328° |
| 2026-04-29 12:30 | 41.25003 | 16.90055 | 8169 ft | 276 kts | 317° |
| 2026-04-29 12:31 | 41.26412 | 16.88299 | 9028 ft | 280 kts | 315° |
| 2026-04-29 12:31 | 41.27814 | 16.86486 | 9941 ft | 282 kts | 315° |
| 2026-04-29 12:31 | 41.29237 | 16.84640 | 10553 ft | 295 kts | 315° |
| 2026-04-29 12:31 | 41.30775 | 16.82649 | 10744 ft | 321 kts | 315° |
| 2026-04-29 12:32 | 41.32424 | 16.80526 | 11183 ft | 336 kts | 315° |
| 2026-04-29 12:32 | 41.34123 | 16.78351 | 11911 ft | 341 kts | 315° |
| 2026-04-29 12:32 | 41.35841 | 16.76159 | 12756 ft | 343 kts | 315° |
| 2026-04-29 12:32 | 41.37573 | 16.73955 | 13579 ft | 346 kts | 315° |
| 2026-04-29 12:33 | 41.39322 | 16.71728 | 14336 ft | 349 kts | 315° |
| 2026-04-29 12:33 | 41.41085 | 16.69486 | 15050 ft | 352 kts | 315° |
| 2026-04-29 12:33 | 41.42841 | 16.67251 | 15766 ft | 355 kts | 315° |
| 2026-04-29 12:33 | 41.44658 | 16.64937 | 16485 ft | 358 kts | 315° |
| 2026-04-29 12:34 | 41.46468 | 16.62631 | 17184 ft | 362 kts | 314° |
| 2026-04-29 12:34 | 41.48294 | 16.60301 | 17873 ft | 365 kts | 314° |
| 2026-04-29 12:34 | 41.50138 | 16.57948 | 18541 ft | 368 kts | 314° |
| 2026-04-29 12:34 | 41.51971 | 16.55607 | 19126 ft | 371 kts | 314° |
| 2026-04-29 12:35 | 41.53868 | 16.53182 | 19741 ft | 374 kts | 314° |
| 2026-04-29 12:35 | 41.55729 | 16.50802 | 20328 ft | 377 kts | 314° |
| 2026-04-29 12:35 | 41.57628 | 16.48370 | 20916 ft | 380 kts | 314° |
| 2026-04-29 12:35 | 41.59544 | 16.45915 | 21492 ft | 383 kts | 314° |
| 2026-04-29 12:36 | 41.61471 | 16.43443 | 22058 ft | 386 kts | 314° |
| 2026-04-29 12:36 | 41.63414 | 16.40949 | 22621 ft | 389 kts | 314° |
| 2026-04-29 12:36 | 41.65372 | 16.38432 | 23173 ft | 392 kts | 314° |
| 2026-04-29 12:36 | 41.67345 | 16.35895 | 23695 ft | 395 kts | 314° |
| 2026-04-29 12:37 | 41.69330 | 16.33340 | 24135 ft | 398 kts | 314° |
| 2026-04-29 12:37 | 41.71330 | 16.30763 | 24579 ft | 400 kts | 314° |
| 2026-04-29 12:37 | 41.73342 | 16.28168 | 25030 ft | 403 kts | 314° |
| 2026-04-29 12:37 | 41.75362 | 16.25560 | 25472 ft | 405 kts | 314° |
| 2026-04-29 12:38 | 41.77396 | 16.22932 | 25898 ft | 407 kts | 314° |
| 2026-04-29 12:38 | 41.79441 | 16.20288 | 26305 ft | 410 kts | 314° |
| 2026-04-29 12:38 | 41.81498 | 16.17626 | 26732 ft | 412 kts | 314° |
| 2026-04-29 12:38 | 41.83563 | 16.14950 | 27146 ft | 414 kts | 314° |
| 2026-04-29 12:39 | 41.85642 | 16.12253 | 27542 ft | 417 kts | 314° |
| 2026-04-29 12:39 | 41.87732 | 16.09541 | 27932 ft | 420 kts | 314° |
| 2026-04-29 12:39 | 41.89833 | 16.06811 | 28372 ft | 420 kts | 314° |
| 2026-04-29 12:39 | 41.91919 | 16.04058 | 28808 ft | 421 kts | 313° |
| 2026-04-29 12:40 | 41.93935 | 16.01189 | 29148 ft | 424 kts | 311° |
| 2026-04-29 12:40 | 41.95919 | 15.98248 | 29459 ft | 427 kts | 310° |
| 2026-04-29 12:40 | 41.97907 | 15.95262 | 29787 ft | 429 kts | 310° |
| 2026-04-29 12:40 | 41.99903 | 15.92266 | 30132 ft | 431 kts | 310° |
| 2026-04-29 12:41 | 42.01913 | 15.89259 | 30426 ft | 433 kts | 310° |
| 2026-04-29 12:41 | 42.03929 | 15.86255 | 30800 ft | 432 kts | 310° |
| 2026-04-29 12:41 | 42.05942 | 15.83263 | 31248 ft | 430 kts | 311° |
| 2026-04-29 12:41 | 42.07942 | 15.80294 | 31676 ft | 428 kts | 311° |
| 2026-04-29 12:42 | 42.09938 | 15.77330 | 32043 ft | 427 kts | 310° |
| 2026-04-29 12:42 | 42.11931 | 15.74367 | 32393 ft | 427 kts | 310° |
| 2026-04-29 12:42 | 42.13921 | 15.71405 | 32781 ft | 425 kts | 310° |
| 2026-04-29 12:42 | 42.15901 | 15.68454 | 33236 ft | 423 kts | 310° |
| 2026-04-29 12:43 | 42.17863 | 15.65527 | 33677 ft | 420 kts | 310° |
| 2026-04-29 12:43 | 42.19824 | 15.62599 | 33977 ft | 421 kts | 310° |
| 2026-04-29 12:43 | 42.21789 | 15.59660 | 34171 ft | 423 kts | 310° |
| 2026-04-29 12:43 | 42.23760 | 15.56711 | 34468 ft | 422 kts | 310° |
| 2026-04-29 12:44 | 42.25719 | 15.53776 | 34829 ft | 420 kts | 310° |
| 2026-04-29 12:44 | 42.27668 | 15.50856 | 35158 ft | 418 kts | 310° |
| 2026-04-29 12:44 | 42.29614 | 15.47935 | 35416 ft | 418 kts | 310° |
| 2026-04-29 12:44 | 42.31556 | 15.45011 | 35676 ft | 418 kts | 309° |
| 2026-04-29 12:45 | 42.33488 | 15.42085 | 35968 ft | 417 kts | 309° |
| 2026-04-29 12:45 | 42.35412 | 15.39164 | 36276 ft | 415 kts | 309° |
| 2026-04-29 12:45 | 42.37334 | 15.36245 | 36532 ft | 415 kts | 309° |
| 2026-04-29 12:45 | 42.39250 | 15.33331 | 36780 ft | 414 kts | 309° |
| 2026-04-29 12:46 | 42.41161 | 15.30423 | 37106 ft | 413 kts | 309° |
| 2026-04-29 12:46 | 42.43063 | 15.27528 | 37402 ft | 411 kts | 309° |
| 2026-04-29 12:46 | 42.44965 | 15.24630 | 37574 ft | 412 kts | 309° |
| 2026-04-29 12:46 | 42.46870 | 15.21724 | 37760 ft | 413 kts | 309° |
| 2026-04-29 12:47 | 42.48705 | 15.18750 | 38026 ft | 410 kts | 304° |
| 2026-04-29 12:47 | 42.52016 | 15.12457 | 38037 ft | 414 kts | 302° |
| 2026-04-29 12:48 | 42.55274 | 15.06040 | 38032 ft | 411 kts | 302° |
| 2026-04-29 12:48 | 42.58513 | 14.99711 | 38033 ft | 406 kts | 302° |
| 2026-04-29 12:49 | 42.61744 | 14.93440 | 38034 ft | 405 kts | 302° |
| 2026-04-29 12:49 | 42.64967 | 14.87191 | 38032 ft | 403 kts | 302° |
| 2026-04-29 12:50 | 42.68185 | 14.80944 | 38044 ft | 404 kts | 302° |
| 2026-04-29 12:50 | 42.71404 | 14.74680 | 38039 ft | 405 kts | 302° |
| 2026-04-29 12:51 | 42.74629 | 14.68391 | 38034 ft | 406 kts | 302° |
| 2026-04-29 12:51 | 42.77861 | 14.62075 | 38038 ft | 408 kts | 302° |
| 2026-04-29 12:52 | 42.81105 | 14.55723 | 38036 ft | 409 kts | 302° |
| 2026-04-29 12:52 | 42.84355 | 14.49345 | 38037 ft | 411 kts | 302° |
| 2026-04-29 12:53 | 42.87615 | 14.42936 | 38036 ft | 412 kts | 302° |
| 2026-04-29 12:53 | 42.90874 | 14.36511 | 38032 ft | 412 kts | 302° |
| 2026-04-29 12:54 | 42.94138 | 14.30066 | 38048 ft | 413 kts | 302° |
| 2026-04-29 12:54 | 42.97395 | 14.23621 | 38030 ft | 412 kts | 302° |
| 2026-04-29 12:55 | 43.00639 | 14.17184 | 38030 ft | 411 kts | 302° |
| 2026-04-29 12:55 | 43.03870 | 14.10763 | 38032 ft | 409 kts | 302° |
| 2026-04-29 12:56 | 43.07088 | 14.04351 | 38030 ft | 408 kts | 302° |
| 2026-04-29 12:56 | 43.10294 | 13.97949 | 38031 ft | 408 kts | 302° |
| 2026-04-29 12:57 | 43.13494 | 13.91544 | 38031 ft | 407 kts | 302° |
| 2026-04-29 12:57 | 43.16686 | 13.85145 | 38029 ft | 407 kts | 302° |
| 2026-04-29 12:58 | 43.19873 | 13.78738 | 38050 ft | 407 kts | 302° |
| 2026-04-29 12:58 | 43.23040 | 13.72361 | 38037 ft | 408 kts | 302° |
| 2026-04-29 12:59 | 43.26277 | 13.65968 | 38044 ft | 409 kts | 304° |
| 2026-04-29 12:59 | 43.29734 | 13.59763 | 38037 ft | 410 kts | 305° |
| 2026-04-29 13:00 | 43.33236 | 13.53580 | 38041 ft | 410 kts | 305° |
| 2026-04-29 13:00 | 43.36722 | 13.47370 | 38033 ft | 411 kts | 305° |
| 2026-04-29 13:01 | 43.40194 | 13.41136 | 38052 ft | 411 kts | 305° |
| 2026-04-29 13:01 | 43.43666 | 13.34875 | 38038 ft | 412 kts | 304° |
| 2026-04-29 13:02 | 43.47139 | 13.28597 | 38045 ft | 412 kts | 304° |
| 2026-04-29 13:02 | 43.50023 | 13.23372 | 38041 ft | 412 kts | 304° |
| 2026-04-29 13:03 | 43.53490 | 13.17081 | 38042 ft | 412 kts | 304° |
| 2026-04-29 13:03 | 43.56947 | 13.10796 | 38043 ft | 411 kts | 304° |
| 2026-04-29 13:04 | 43.60394 | 13.04513 | 38044 ft | 410 kts | 304° |
| 2026-04-29 13:04 | 43.63830 | 12.98237 | 38042 ft | 409 kts | 304° |
| 2026-04-29 13:04 | 43.65566 | 12.95120 | 37607 ft | 413 kts | 307° |
| 2026-04-29 13:05 | 43.67492 | 12.92157 | 37135 ft | 411 kts | 310° |
| 2026-04-29 13:05 | 43.69426 | 12.89354 | 37143 ft | 396 kts | 311° |
| 2026-04-29 13:05 | 43.71333 | 12.86624 | 37143 ft | 395 kts | 311° |
| 2026-04-29 13:06 | 43.75182 | 12.81063 | 37168 ft | 405 kts | 310° |
| 2026-04-29 13:06 | 43.79096 | 12.75326 | 37170 ft | 415 kts | 310° |
| 2026-04-29 13:07 | 43.83069 | 12.69453 | 36885 ft | 421 kts | 310° |
| 2026-04-29 13:07 | 43.85062 | 12.66500 | 36631 ft | 418 kts | 310° |
| 2026-04-29 13:07 | 43.87042 | 12.63562 | 36457 ft | 417 kts | 310° |
| 2026-04-29 13:08 | 43.91045 | 12.57605 | 36348 ft | 428 kts | 310° |
| 2026-04-29 13:08 | 43.95138 | 12.51502 | 36203 ft | 433 kts | 310° |
| 2026-04-29 13:09 | 43.99189 | 12.45458 | 35909 ft | 419 kts | 310° |
| 2026-04-29 13:09 | 44.01158 | 12.42514 | 35519 ft | 414 kts | 310° |
| 2026-04-29 13:09 | 44.03117 | 12.39581 | 34920 ft | 415 kts | 310° |
| 2026-04-29 13:09 | 44.05090 | 12.36621 | 34202 ft | 420 kts | 311° |
| 2026-04-29 13:10 | 44.07079 | 12.33632 | 33402 ft | 423 kts | 311° |
| 2026-04-29 13:10 | 44.09085 | 12.30617 | 32697 ft | 425 kts | 311° |
| 2026-04-29 13:10 | 44.11090 | 12.27600 | 32026 ft | 425 kts | 311° |
| 2026-04-29 13:10 | 44.13102 | 12.24571 | 31311 ft | 426 kts | 311° |
| 2026-04-29 13:11 | 44.15109 | 12.21547 | 30479 ft | 425 kts | 311° |
| 2026-04-29 13:11 | 44.17112 | 12.18524 | 29476 ft | 424 kts | 311° |
| 2026-04-29 13:11 | 44.19104 | 12.15517 | 28648 ft | 420 kts | 311° |
| 2026-04-29 13:11 | 44.21061 | 12.12559 | 27896 ft | 412 kts | 311° |
| 2026-04-29 13:12 | 44.22999 | 12.09626 | 27300 ft | 409 kts | 311° |
| 2026-04-29 13:12 | 44.24918 | 12.06720 | 26755 ft | 406 kts | 311° |
| 2026-04-29 13:12 | 44.26820 | 12.03834 | 26236 ft | 402 kts | 311° |
| 2026-04-29 13:12 | 44.28705 | 12.00972 | 25732 ft | 399 kts | 311° |
| 2026-04-29 13:13 | 44.30573 | 11.98133 | 25247 ft | 395 kts | 311° |
| 2026-04-29 13:13 | 44.32424 | 11.95316 | 24760 ft | 392 kts | 311° |
| 2026-04-29 13:13 | 44.34262 | 11.92516 | 24276 ft | 390 kts | 311° |
| 2026-04-29 13:13 | 44.36086 | 11.89735 | 23781 ft | 387 kts | 311° |
| 2026-04-29 13:14 | 44.37903 | 11.86962 | 23244 ft | 385 kts | 311° |
| 2026-04-29 13:14 | 44.39704 | 11.84211 | 22724 ft | 382 kts | 311° |
| 2026-04-29 13:14 | 44.41488 | 11.81483 | 22214 ft | 379 kts | 310° |
| 2026-04-29 13:14 | 44.43257 | 11.78776 | 21736 ft | 375 kts | 310° |
| 2026-04-29 13:15 | 44.45008 | 11.76094 | 21263 ft | 372 kts | 310° |
| 2026-04-29 13:15 | 44.46720 | 11.73469 | 20807 ft | 368 kts | 310° |
| 2026-04-29 13:15 | 44.48461 | 11.70796 | 20340 ft | 365 kts | 310° |
| 2026-04-29 13:15 | 44.50144 | 11.68209 | 19891 ft | 363 kts | 310° |
| 2026-04-29 13:16 | 44.51837 | 11.65606 | 19440 ft | 360 kts | 310° |
| 2026-04-29 13:16 | 44.53520 | 11.63015 | 18990 ft | 358 kts | 310° |
| 2026-04-29 13:16 | 44.55190 | 11.60441 | 18546 ft | 356 kts | 310° |
| 2026-04-29 13:16 | 44.56853 | 11.57877 | 18061 ft | 354 kts | 310° |
| 2026-04-29 13:17 | 44.58507 | 11.55323 | 17568 ft | 352 kts | 310° |
| 2026-04-29 13:17 | 44.60149 | 11.52788 | 17101 ft | 350 kts | 310° |
| 2026-04-29 13:17 | 44.61778 | 11.50268 | 16661 ft | 347 kts | 310° |
| 2026-04-29 13:17 | 44.63395 | 11.47766 | 16219 ft | 345 kts | 310° |
| 2026-04-29 13:18 | 44.65001 | 11.45278 | 15782 ft | 343 kts | 310° |
| 2026-04-29 13:18 | 44.66596 | 11.42805 | 15352 ft | 341 kts | 310° |
| 2026-04-29 13:18 | 44.68180 | 11.40346 | 14928 ft | 339 kts | 310° |
| 2026-04-29 13:18 | 44.69760 | 11.37892 | 14499 ft | 337 kts | 311° |
| 2026-04-29 13:19 | 44.71328 | 11.35454 | 14084 ft | 336 kts | 311° |
| 2026-04-29 13:19 | 44.72893 | 11.33020 | 13644 ft | 335 kts | 311° |
| 2026-04-29 13:19 | 44.74449 | 11.30596 | 13191 ft | 333 kts | 311° |
| 2026-04-29 13:19 | 44.75997 | 11.28182 | 12753 ft | 331 kts | 310° |
| 2026-04-29 13:20 | 44.77537 | 11.25782 | 12341 ft | 329 kts | 310° |
| 2026-04-29 13:20 | 44.79065 | 11.23396 | 11951 ft | 327 kts | 310° |
| 2026-04-29 13:20 | 44.80582 | 11.21025 | 11540 ft | 325 kts | 310° |
| 2026-04-29 13:20 | 44.82092 | 11.18664 | 11142 ft | 324 kts | 310° |
| 2026-04-29 13:21 | 44.83591 | 11.16318 | 10851 ft | 318 kts | 310° |
| 2026-04-29 13:21 | 44.85046 | 11.14041 | 10728 ft | 308 kts | 310° |
| 2026-04-29 13:21 | 44.86458 | 11.11825 | 10589 ft | 299 kts | 310° |
| 2026-04-29 13:21 | 44.87828 | 11.09678 | 10461 ft | 290 kts | 309° |
| 2026-04-29 13:22 | 44.89158 | 11.07593 | 10344 ft | 282 kts | 309° |
| 2026-04-29 13:22 | 44.90447 | 11.05568 | 10231 ft | 274 kts | 308° |
| 2026-04-29 13:22 | 44.91700 | 11.03599 | 10111 ft | 266 kts | 310° |
| 2026-04-29 13:22 | 44.92928 | 11.01666 | 9880 ft | 264 kts | 309° |
| 2026-04-29 13:23 | 44.94129 | 10.99770 | 9614 ft | 262 kts | 308° |
| 2026-04-29 13:23 | 44.95340 | 10.97858 | 9361 ft | 260 kts | 308° |
| 2026-04-29 13:23 | 44.96542 | 10.95963 | 9099 ft | 258 kts | 309° |
| 2026-04-29 13:23 | 44.97736 | 10.94079 | 8836 ft | 257 kts | 310° |
| 2026-04-29 13:24 | 44.98923 | 10.92205 | 8585 ft | 256 kts | 310° |
| 2026-04-29 13:24 | 45.00105 | 10.90336 | 8326 ft | 254 kts | 310° |
| 2026-04-29 13:24 | 45.01281 | 10.88475 | 8064 ft | 253 kts | 310° |
| 2026-04-29 13:24 | 45.02454 | 10.86619 | 7822 ft | 253 kts | 310° |
| 2026-04-29 13:25 | 45.03627 | 10.84762 | 7564 ft | 253 kts | 310° |
| 2026-04-29 13:25 | 45.05966 | 10.81052 | 7048 ft | 252 kts | 311° |
| 2026-04-29 13:25 | 45.07133 | 10.79201 | 6786 ft | 252 kts | 311° |
| 2026-04-29 13:26 | 45.08296 | 10.77355 | 6571 ft | 250 kts | 310° |
| 2026-04-29 13:26 | 45.09448 | 10.75525 | 6373 ft | 247 kts | 310° |
| 2026-04-29 13:26 | 45.10579 | 10.73728 | 6243 ft | 241 kts | 311° |
| 2026-04-29 13:26 | 45.11680 | 10.71978 | 6122 ft | 235 kts | 311° |
| 2026-04-29 13:27 | 45.12748 | 10.70277 | 6023 ft | 228 kts | 311° |
| 2026-04-29 13:27 | 45.13809 | 10.68588 | 5919 ft | 231 kts | 311° |
| 2026-04-29 13:27 | 45.14938 | 10.66956 | 5682 ft | 232 kts | 316° |
| 2026-04-29 13:27 | 45.16103 | 10.65373 | 5441 ft | 232 kts | 316° |
| 2026-04-29 13:28 | 45.17266 | 10.63792 | 5236 ft | 232 kts | 316° |
| 2026-04-29 13:28 | 45.18496 | 10.62331 | 4988 ft | 231 kts | 334° |
| 2026-04-29 13:28 | 45.20016 | 10.61915 | 4787 ft | 223 kts | 13° |
| 2026-04-29 13:28 | 45.21334 | 10.62863 | 4591 ft | 208 kts | 43° |
| 2026-04-29 13:29 | 45.22433 | 10.64135 | 4381 ft | 200 kts | 41° |
| 2026-04-29 13:29 | 45.23466 | 10.65412 | 4174 ft | 193 kts | 45° |
| 2026-04-29 13:29 | 45.24407 | 10.66709 | 4028 ft | 183 kts | 49° |
| 2026-04-29 13:29 | 45.25268 | 10.67946 | 3964 ft | 175 kts | 50° |
| 2026-04-29 13:30 | 45.26115 | 10.69184 | 3742 ft | 173 kts | 49° |
| 2026-04-29 13:30 | 45.26947 | 10.70402 | 3524 ft | 171 kts | 49° |
| 2026-04-29 13:30 | 45.27767 | 10.71599 | 3310 ft | 168 kts | 51° |
| 2026-04-29 13:30 | 45.28563 | 10.72766 | 3082 ft | 166 kts | 51° |
| 2026-04-29 13:31 | 45.29360 | 10.73934 | 2869 ft | 164 kts | 50° |
| 2026-04-29 13:31 | 45.30159 | 10.75103 | 2663 ft | 167 kts | 51° |
| 2026-04-29 13:31 | 45.30980 | 10.76303 | 2427 ft | 166 kts | 50° |
| 2026-04-29 13:31 | 45.31772 | 10.77463 | 2211 ft | 166 kts | 50° |
| 2026-04-29 13:32 | 45.32556 | 10.78608 | 1994 ft | 157 kts | 50° |
| 2026-04-29 13:32 | 45.33297 | 10.79692 | 1782 ft | 151 kts | 49° |
| 2026-04-29 13:32 | 45.34023 | 10.80754 | 1586 ft | 150 kts | 49° |
| 2026-04-29 13:32 | 45.34731 | 10.81787 | 1392 ft | 144 kts | 51° |
| 2026-04-29 13:33 | 45.35415 | 10.82788 | 1214 ft | 139 kts | 53° |
| 2026-04-29 13:33 | 45.36086 | 10.83788 | 1024 ft | 142 kts | 51° |
| 2026-04-29 13:33 | 45.36790 | 10.84792 | 807 ft | 143 kts | 50° |
| 2026-04-29 13:33 | 45.37470 | 10.85804 | 622 ft | 141 kts | 50° |
| 2026-04-29 13:34 | 45.38171 | 10.86806 | 436 ft | 144 kts | 48° |
| 2026-04-29 13:34 | 45.38857 | 10.87813 | 249 ft | 140 kts | 49° |
| 2026-04-29 13:34 | 45.39472 | 10.88708 | 238 ft | 107 kts | 46° |
| 2026-04-29 13:34 | 45.39884 | 10.89312 | 239 ft | 65 kts | 46° |
| 2026-04-29 13:35 | 45.40161 | 10.89714 | 246 ft | 41 kts | 45° |
| 2026-04-29 13:35 | 45.40280 | 10.89935 | 245 ft | 23 kts | 75° |
| 2026-04-29 13:35 | 45.40315 | 10.90138 | 243 ft | 19 kts | 75° |
| 2026-04-29 13:35 | 45.40334 | 10.90246 | 241 ft | 7 kts | 79° |
| 2026-04-29 13:36 | 45.40350 | 10.90308 | 241 ft | 7 kts | 60° |
| 2026-04-29 13:36 | 45.40375 | 10.90350 | 241 ft | 3 kts | 41° |
| 2026-04-29 13:36 | 45.40410 | 10.90397 | 241 ft | 11 kts | 46° |
| 2026-04-29 13:36 | 45.40399 | 10.90470 | 241 ft | 8 kts | 136° |
| 2026-04-29 13:37 | 45.40381 | 10.90495 | 241 ft | 0 kts | 135° |